Time;durP1;ratioP1;P1;durP2;ratioP2;P2;SDS_P1;SDS_P2;PMS_P1;PMS_P2;Temp;Humidity;BMP_temperature;BMP_pressure;BME280_temperature;BME280_humidity;BME280_pressure;Samples;Min_cycle;Max_cycle;Signal;HPM_P1;HPM_P2
2023/01/24 00:00:21;;;;;;;8.90;6.00;;;6.60;56.90;;;;;;5005745;28;20503;-86
2023/01/24 00:02:48;;;;;;;10.40;6.17;;;6.80;56.60;;;;;;5044238;28;20492;-88
2023/01/24 00:05:15;;;;;;;9.97;5.70;;;6.90;55.80;;;;;;5029553;28;20528;-86
2023/01/24 00:07:44;;;;;;;7.60;5.20;;;6.80;56.10;;;;;;5017066;28;20449;-87
2023/01/24 00:10:13;;;;;;;12.60;6.30;;;6.90;56.50;;;;;;5026293;28;20469;-87
2023/01/24 00:12:40;;;;;;;14.60;6.93;;;7.00;56.00;;;;;;5018340;28;20475;-88
2023/01/24 00:15:08;;;;;;;9.63;5.37;;;7.10;55.80;;;;;;5014511;28;20588;-87
2023/01/24 00:17:35;;;;;;;11.13;6.57;;;7.30;55.70;;;;;;5029466;28;20485;-88
2023/01/24 00:20:04;;;;;;;7.70;5.60;;;7.10;55.50;;;;;;5022016;28;20867;-86
2023/01/24 00:22:31;;;;;;;11.80;6.30;;;7.00;56.00;;;;;;5015422;28;20476;-87
2023/01/24 00:25:00;;;;;;;7.77;5.20;;;7.10;55.50;;;;;;5014834;28;20729;-87
2023/01/24 00:27:29;;;;;;;9.73;5.57;;;7.10;55.50;;;;;;5018723;28;20552;-87
2023/01/24 00:29:57;;;;;;;7.37;5.83;;;7.00;55.80;;;;;;5012717;28;20547;-87
2023/01/24 00:32:24;;;;;;;11.83;6.43;;;7.10;56.00;;;;;;5032786;28;20535;-87
2023/01/24 00:34:51;;;;;;;11.37;6.33;;;7.20;55.80;;;;;;5009612;28;20480;-87
2023/01/24 00:37:18;;;;;;;10.13;6.97;;;7.40;55.60;;;;;;5032630;28;21320;-87
2023/01/24 00:39:45;;;;;;;8.00;5.70;;;7.50;54.80;;;;;;5008979;28;20526;-87
2023/01/24 00:42:14;;;;;;;8.27;5.10;;;7.50;55.10;;;;;;5016324;28;20458;-87
2023/01/24 00:44:43;;;;;;;9.23;6.10;;;7.40;55.10;;;;;;5026985;28;20542;-87
2023/01/24 00:47:10;;;;;;;11.07;5.30;;;7.40;55.10;;;;;;5024060;28;20445;-88
2023/01/24 00:49:37;;;;;;;9.73;5.03;;;7.20;54.80;;;;;;5012565;28;20456;-87
2023/01/24 00:52:05;;;;;;;7.83;5.37;;;7.10;55.40;;;;;;5028462;28;20548;-87
2023/01/24 00:54:32;;;;;;;10.27;5.50;;;7.20;55.40;;;;;;5024177;28;20529;-88
2023/01/24 00:56:59;;;;;;;8.63;5.80;;;7.40;55.30;;;;;;5011268;28;20535;-86
2023/01/24 00:59:27;;;;;;;7.33;5.30;;;7.50;55.00;;;;;;5015380;28;20962;-89
2023/01/24 01:01:54;;;;;;;9.83;4.70;;;7.50;54.60;;;;;;5006747;28;20501;-87
2023/01/24 01:04:21;;;;;;;7.90;5.20;;;7.30;54.70;;;;;;5017302;28;20515;-88
2023/01/24 01:06:48;;;;;;;10.60;5.40;;;7.40;54.70;;;;;;5028925;28;20472;-87
2023/01/24 01:09:15;;;;;;;9.50;5.70;;;7.20;55.00;;;;;;5030725;28;20440;-87
2023/01/24 01:11:43;;;;;;;9.47;5.57;;;7.20;55.20;;;;;;5006056;28;20477;-88
2023/01/24 01:14:11;;;;;;;8.33;5.00;;;7.30;55.00;;;;;;5023734;28;20450;-88
2023/01/24 01:16:42;;;;;;;10.07;5.77;;;7.30;55.00;;;;;;5019852;28;20543;-87
2023/01/24 01:19:10;;;;;;;10.13;4.93;;;7.30;54.40;;;;;;5026561;28;20445;-88
2023/01/24 01:21:37;;;;;;;8.10;5.87;;;6.90;55.00;;;;;;5013051;28;20471;-87
2023/01/24 01:24:04;;;;;;;9.43;5.70;;;6.70;55.80;;;;;;5032195;28;20536;-86
2023/01/24 01:26:32;;;;;;;7.83;5.10;;;6.80;55.80;;;;;;5010109;28;20452;-88
2023/01/24 01:28:59;;;;;;;7.67;5.20;;;6.90;55.80;;;;;;5026447;28;20457;-86
2023/01/24 01:31:26;;;;;;;10.13;6.33;;;7.00;55.30;;;;;;5014653;28;20892;-87
2023/01/24 01:33:55;;;;;;;9.30;5.17;;;7.20;55.50;;;;;;5002578;28;20446;-88
2023/01/24 01:36:22;;;;;;;7.53;5.70;;;7.30;54.90;;;;;;5028769;28;20461;-88
2023/01/24 01:38:49;;;;;;;9.90;5.53;;;7.20;54.90;;;;;;5029698;28;20455;-86
2023/01/24 01:41:16;;;;;;;8.50;5.03;;;7.00;55.50;;;;;;5012838;28;20450;-87
2023/01/24 01:46:29;;;;;;;10.87;5.80;;;7.00;55.80;;;;;;5028756;28;20440;-87
2023/01/24 01:49:03;;;;;;;8.63;4.77;;;7.20;55.60;;;;;;5012856;28;20551;-87
2023/01/24 01:51:37;;;;;;;8.90;4.70;;;7.30;55.50;;;;;;5011239;28;20539;-88
2023/01/24 01:54:10;;;;;;;6.90;4.83;;;7.20;54.80;;;;;;5042671;28;20965;-86
2023/01/24 01:56:42;;;;;;;10.07;6.17;;;7.20;55.20;;;;;;5006691;28;20457;-88
2023/01/24 01:59:15;;;;;;;15.80;6.30;;;7.00;55.10;;;;;;5026270;28;20559;-88
2023/01/24 02:01:45;;;;;;;5.93;4.73;;;6.90;55.60;;;;;;5007262;28;20506;-87
2023/01/24 02:04:17;;;;;;;8.33;6.27;;;6.60;55.90;;;;;;5013815;28;20456;-87
2023/01/24 02:06:53;;;;;;;9.20;6.03;;;6.40;56.50;;;;;;5011798;28;20861;-87
2023/01/24 02:09:23;;;;;;;9.73;5.17;;;6.50;56.80;;;;;;5011754;28;20595;-86
2023/01/24 02:11:53;;;;;;;6.87;5.10;;;6.80;56.60;;;;;;5030566;28;20468;-88
2023/01/24 02:17:08;;;;;;;7.63;5.33;;;6.80;56.30;;;;;;5015155;28;21189;-87
2023/01/24 02:19:53;;;;;;;10.60;4.77;;;6.80;56.00;;;;;;5022781;28;21143;-88
2023/01/24 02:22:26;;;;;;;8.27;4.90;;;6.90;56.40;;;;;;5046382;28;20477;-87
2023/01/24 02:25:02;;;;;;;9.13;4.83;;;6.80;56.00;;;;;;5022957;28;20456;-87
2023/01/24 02:27:33;;;;;;;8.63;5.13;;;6.90;56.20;;;;;;5028829;28;20444;-87
2023/01/24 02:30:01;;;;;;;6.90;3.40;;;6.80;56.30;;;;;;5026498;28;20464;-87
2023/01/24 02:32:29;;;;;;;8.80;4.87;;;6.60;55.80;;;;;;5019713;28;20473;-86
2023/01/24 02:34:56;;;;;;;8.77;4.60;;;6.20;57.30;;;;;;5032592;28;20539;-87
2023/01/24 02:37:25;;;;;;;10.73;3.77;;;6.50;57.40;;;;;;5022357;28;20469;-88
2023/01/24 02:39:58;;;;;;;5.87;4.77;;;6.50;56.80;;;;;;5025111;28;20984;-87
2023/01/24 02:42:30;;;;;;;11.03;6.50;;;6.20;56.70;;;;;;5039766;28;21193;-87
2023/01/24 02:45:04;;;;;;;10.17;5.53;;;6.20;57.50;;;;;;5032959;28;20452;-88
2023/01/24 02:47:36;;;;;;;8.20;4.87;;;6.20;57.90;;;;;;5024704;28;20453;-87
2023/01/24 02:50:05;;;;;;;8.47;4.83;;;6.30;57.60;;;;;;5043234;28;21158;-87
2023/01/24 02:55:17;;;;;;;8.70;4.83;;;6.50;56.90;;;;;;5033973;28;21000;-88
2023/01/24 03:00:30;;;;;;;11.33;6.00;;;6.40;57.40;;;;;;5013101;28;20444;-88
2023/01/24 03:02:59;;;;;;;11.90;5.70;;;6.50;57.40;;;;;;5012042;28;20502;-87
2023/01/24 03:05:39;;;;;;;13.53;5.53;;;6.40;57.20;;;;;;5034831;28;20465;-88
2023/01/24 03:08:10;;;;;;;8.00;5.77;;;6.40;57.40;;;;;;5028629;28;20459;-87
2023/01/24 03:10:37;;;;;;;10.77;4.87;;;6.50;57.40;;;;;;5035905;28;20469;-87
2023/01/24 03:35:07;;;;;;;8.93;5.53;;;6.40;58.10;;;;;;5029081;28;20441;-88
2023/01/24 03:40:21;;;;;;;9.23;5.47;;;6.50;57.80;;;;;;5030395;28;20959;-88
2023/01/24 03:42:49;;;;;;;10.43;6.30;;;6.50;57.90;;;;;;5033976;28;20475;-88
2023/01/24 03:45:19;;;;;;;11.83;5.40;;;6.70;57.30;;;;;;5006312;28;20443;-87
2023/01/24 03:48:04;;;;;;;7.67;5.53;;;6.40;57.60;;;;;;5032750;28;20535;-88
2023/01/24 03:53:24;;;;;;;11.67;6.80;;;6.20;58.30;;;;;;5030331;28;20465;-89
2023/01/24 03:55:53;;;;;;;15.20;6.53;;;5.90;58.90;;;;;;5029903;28;20452;-87
2023/01/24 03:58:21;;;;;;;11.27;5.83;;;5.80;59.80;;;;;;5013197;28;21374;-88
2023/01/24 04:00:49;;;;;;;11.17;6.70;;;5.90;59.70;;;;;;5015361;28;20446;-88
2023/01/24 04:03:38;;;;;;;14.43;7.50;;;6.20;59.20;;;;;;5043987;28;20452;-88
2023/01/24 04:06:05;;;;;;;13.53;7.83;;;6.50;58.70;;;;;;5009134;28;20461;-88
2023/01/24 04:08:33;;;;;;;13.53;8.07;;;6.70;57.90;;;;;;5027334;28;21044;-88
2023/01/24 04:11:00;;;;;;;13.20;6.87;;;6.70;57.80;;;;;;5026584;28;20468;-87
2023/01/24 04:13:27;;;;;;;10.30;7.37;;;6.70;57.80;;;;;;5009418;28;20538;-88
2023/01/24 04:15:55;;;;;;;14.13;7.00;;;6.80;57.60;;;;;;5013078;28;20491;-87
2023/01/24 04:18:30;;;;;;;10.67;6.33;;;6.90;57.30;;;;;;5014206;28;20448;-88
2023/01/24 04:21:01;;;;;;;10.20;5.43;;;6.80;57.20;;;;;;5031172;28;20476;-88
2023/01/24 04:23:30;;;;;;;13.40;7.00;;;6.80;57.50;;;;;;5015383;28;20481;-88
2023/01/24 04:25:59;;;;;;;22.03;8.90;;;6.70;57.80;;;;;;5014895;28;20453;-88
2023/01/24 04:28:28;;;;;;;20.80;8.10;;;6.60;57.80;;;;;;5022855;28;20489;-86
2023/01/24 04:30:58;;;;;;;13.60;6.57;;;6.60;58.00;;;;;;5001725;28;20509;-89
2023/01/24 04:33:40;;;;;;;15.80;8.40;;;6.60;58.00;;;;;;5024954;28;20530;-87
2023/01/24 04:36:11;;;;;;;13.40;6.90;;;6.60;57.90;;;;;;5022574;28;20801;-87
2023/01/24 04:38:38;;;;;;;11.07;7.57;;;6.40;58.50;;;;;;5029583;28;20465;-87
2023/01/24 04:41:26;;;;;;;14.10;7.67;;;6.40;58.70;;;;;;5026149;28;20991;-88
2023/01/24 04:43:54;;;;;;;16.33;7.40;;;6.50;58.70;;;;;;5008076;28;21021;-87
2023/01/24 04:46:22;;;;;;;14.43;7.10;;;6.50;58.60;;;;;;5025732;28;20979;-88
2023/01/24 04:48:56;;;;;;;16.50;6.87;;;6.70;58.30;;;;;;5028492;28;20448;-88
2023/01/24 04:51:35;;;;;;;12.93;6.83;;;6.80;57.80;;;;;;5031980;28;20492;-88
2023/01/24 04:54:06;;;;;;;15.47;6.97;;;6.90;57.50;;;;;;5026854;28;20445;-87
2023/01/24 04:56:33;;;;;;;11.17;6.33;;;6.60;57.70;;;;;;5002260;28;20456;-88
2023/01/24 04:59:00;;;;;;;11.37;6.70;;;6.70;57.80;;;;;;5027453;28;20482;-87
2023/01/24 05:01:27;;;;;;;13.00;7.70;;;6.60;57.50;;;;;;5013554;28;20478;-87
2023/01/24 05:04:01;;;;;;;11.00;5.97;;;6.80;57.90;;;;;;5012079;28;20465;-88
2023/01/24 05:06:40;;;;;;;13.70;7.10;;;7.00;57.50;;;;;;5068185;27;20553;-88
2023/01/24 05:09:08;;;;;;;15.60;8.17;;;7.20;56.90;;;;;;5024344;28;20499;-87
2023/01/24 05:11:50;;;;;;;15.20;7.70;;;7.10;56.70;;;;;;5037610;28;20480;-87
2023/01/24 05:14:17;;;;;;;12.40;6.40;;;7.00;57.20;;;;;;5035581;28;20445;-87
2023/01/24 05:16:44;;;;;;;18.37;7.50;;;7.00;57.30;;;;;;5044128;28;20457;-86
2023/01/24 05:19:12;;;;;;;13.03;7.20;;;6.90;57.10;;;;;;5025694;28;20524;-88
2023/01/24 05:21:40;;;;;;;15.07;7.90;;;6.80;57.60;;;;;;5025787;28;20579;-88
2023/01/24 05:24:08;;;;;;;14.63;7.83;;;6.70;57.70;;;;;;5045481;28;20507;-89
2023/01/24 05:26:36;;;;;;;14.07;7.50;;;6.80;57.70;;;;;;5049027;28;20571;-88
2023/01/24 05:29:03;;;;;;;11.40;7.57;;;7.00;57.40;;;;;;5024711;28;20875;-88
2023/01/24 05:31:31;;;;;;;11.50;7.13;;;7.00;57.70;;;;;;5048961;28;20467;-88
2023/01/24 05:33:58;;;;;;;16.30;7.33;;;6.90;57.10;;;;;;5012552;28;20450;-88
2023/01/24 05:36:26;;;;;;;17.20;8.40;;;6.60;58.00;;;;;;5026639;28;20445;-88
2023/01/24 05:38:54;;;;;;;13.00;8.40;;;6.60;58.20;;;;;;5019891;28;20484;-88
2023/01/24 05:41:21;;;;;;;12.70;6.53;;;6.40;58.20;;;;;;5037277;28;20460;-88
2023/01/24 05:43:51;;;;;;;15.70;7.50;;;6.50;58.40;;;;;;5024774;28;20444;-87
2023/01/24 05:46:23;;;;;;;13.87;8.67;;;6.50;58.50;;;;;;5021686;28;20464;-88
2023/01/24 05:49:10;;;;;;;17.13;10.90;;;6.50;58.30;;;;;;5034801;28;20457;-87
2023/01/24 05:51:37;;;;;;;16.50;8.73;;;6.70;58.40;;;;;;5022683;28;20469;-89
2023/01/24 05:54:07;;;;;;;15.03;8.27;;;6.50;58.20;;;;;;5040882;28;20449;-88
2023/01/24 05:56:52;;;;;;;12.83;7.80;;;6.70;58.20;;;;;;5037957;28;20452;-88
2023/01/24 05:59:19;;;;;;;15.70;8.03;;;6.80;57.70;;;;;;5040105;28;20456;-88
2023/01/24 06:01:46;;;;;;;13.97;7.73;;;6.60;58.00;;;;;;5021140;28;20475;-88
2023/01/24 06:04:13;;;;;;;12.67;7.63;;;6.60;58.10;;;;;;5023664;28;21463;-88
2023/01/24 06:06:41;;;;;;;15.73;9.00;;;6.50;58.50;;;;;;5024922;28;20500;-86
2023/01/24 06:09:10;;;;;;;16.13;7.90;;;6.70;58.20;;;;;;5037882;28;20488;-88
2023/01/24 06:11:37;;;;;;;17.37;7.80;;;6.90;57.80;;;;;;5039081;28;20475;-88
2023/01/24 06:14:12;;;;;;;14.67;7.90;;;6.80;57.70;;;;;;5030835;28;20453;-87
2023/01/24 06:16:39;;;;;;;16.17;7.90;;;6.50;58.00;;;;;;5028697;28;20540;-87
2023/01/24 06:19:09;;;;;;;11.77;7.43;;;6.40;58.40;;;;;;5001972;28;20477;-86
2023/01/24 06:21:44;;;;;;;14.90;8.13;;;6.20;59.00;;;;;;5003190;28;20469;-86
2023/01/24 06:24:18;;;;;;;12.30;7.03;;;6.30;59.20;;;;;;5017340;28;20445;-88
2023/01/24 06:26:55;;;;;;;11.47;6.80;;;6.50;58.90;;;;;;5047034;28;20496;-88
2023/01/24 06:29:23;;;;;;;18.23;7.57;;;6.30;58.90;;;;;;5020212;28;20439;-88
2023/01/24 06:32:05;;;;;;;17.93;7.60;;;6.50;58.90;;;;;;5018319;28;20511;-88
2023/01/24 06:34:44;;;;;;;14.80;8.30;;;6.60;58.50;;;;;;5018351;28;20589;-87
2023/01/24 06:37:18;;;;;;;15.97;8.60;;;6.60;58.90;;;;;;5007294;28;20465;-88
2023/01/24 06:39:51;;;;;;;19.70;7.60;;;6.60;58.30;;;;;;5007245;28;20933;-88
2023/01/24 06:42:19;;;;;;;12.87;7.60;;;6.60;58.10;;;;;;5017648;28;21018;-87
2023/01/24 06:44:47;;;;;;;13.50;7.53;;;6.70;58.60;;;;;;5033273;28;20469;-87
2023/01/24 06:47:14;;;;;;;10.20;7.60;;;6.70;58.10;;;;;;5014111;28;20458;-88
2023/01/24 06:49:42;;;;;;;12.00;6.80;;;6.80;58.30;;;;;;5007854;28;20492;-86
2023/01/24 06:52:10;;;;;;;11.57;7.77;;;7.00;58.00;;;;;;5000615;28;20470;-87
2023/01/24 06:54:37;;;;;;;17.37;8.20;;;7.00;57.90;;;;;;4998460;28;20454;-88
2023/01/24 06:57:05;;;;;;;9.67;7.07;;;7.00;57.40;;;;;;5015167;28;20534;-87
2023/01/24 06:59:32;;;;;;;14.43;8.13;;;6.90;57.40;;;;;;5025440;28;20461;-89
2023/01/24 07:01:59;;;;;;;12.87;7.73;;;6.50;58.10;;;;;;4999134;28;20465;-89
2023/01/24 07:04:26;;;;;;;13.13;7.47;;;6.50;58.50;;;;;;5016008;28;21208;-86
2023/01/24 07:06:53;;;;;;;15.50;8.00;;;6.60;58.40;;;;;;5032707;28;20485;-87
2023/01/24 07:09:20;;;;;;;14.43;8.70;;;6.80;58.40;;;;;;5036526;28;20443;-88
2023/01/24 07:11:49;;;;;;;21.00;8.90;;;6.90;58.10;;;;;;5004559;28;20540;-87
2023/01/24 07:14:17;;;;;;;17.33;8.20;;;7.00;57.80;;;;;;5005955;28;20457;-86
2023/01/24 07:16:44;;;;;;;15.10;8.73;;;7.00;57.60;;;;;;5029754;28;20844;-87
2023/01/24 07:19:15;;;;;;;15.30;7.80;;;7.00;57.50;;;;;;5006325;28;20928;-87
2023/01/24 07:21:43;;;;;;;15.77;6.70;;;6.90;57.60;;;;;;5004892;28;21073;-87
2023/01/24 07:24:14;;;;;;;10.77;7.03;;;6.80;57.60;;;;;;5007026;28;20457;-88
2023/01/24 07:26:42;;;;;;;12.97;6.97;;;6.70;57.80;;;;;;4999523;28;20505;-85
2023/01/24 07:29:09;;;;;;;13.47;7.83;;;6.60;57.80;;;;;;5005300;28;20561;-86
2023/01/24 07:31:37;;;;;;;12.37;6.87;;;6.40;58.70;;;;;;5016740;28;20458;-88
2023/01/24 07:34:04;;;;;;;11.33;6.60;;;6.40;58.60;;;;;;5009404;28;20453;-88
2023/01/24 07:36:31;;;;;;;12.13;7.10;;;6.30;58.30;;;;;;5014584;28;20477;-88
2023/01/24 07:38:58;;;;;;;11.77;7.20;;;6.20;59.10;;;;;;5003976;28;20451;-87
2023/01/24 07:41:25;;;;;;;12.17;6.17;;;6.10;59.40;;;;;;5002760;28;21026;-89
2023/01/24 07:43:54;;;;;;;12.53;7.40;;;6.20;59.10;;;;;;5005422;28;20459;-88
2023/01/24 07:46:21;;;;;;;14.10;8.63;;;6.30;58.70;;;;;;5022014;28;20466;-88
2023/01/24 07:48:49;;;;;;;10.87;6.90;;;6.30;59.00;;;;;;5036938;28;20495;-89
2023/01/24 07:51:16;;;;;;;14.87;7.53;;;6.30;58.60;;;;;;5018414;28;20446;-88
2023/01/24 07:53:43;;;;;;;16.20;8.80;;;6.30;58.90;;;;;;5019113;28;20453;-88
2023/01/24 07:56:10;;;;;;;12.27;7.37;;;6.40;58.80;;;;;;5002961;28;20445;-89
2023/01/24 07:58:37;;;;;;;17.30;8.67;;;6.50;58.70;;;;;;5008682;28;20454;-85
2023/01/24 08:01:05;;;;;;;18.03;9.50;;;6.60;58.40;;;;;;5003855;28;20445;-87
2023/01/24 08:03:32;;;;;;;19.97;10.33;;;6.80;58.20;;;;;;5025495;28;20474;-84
2023/01/24 08:06:00;;;;;;;19.00;9.70;;;6.80;57.70;;;;;;5021715;28;20474;-85
2023/01/24 08:08:27;;;;;;;14.23;8.60;;;6.90;57.60;;;;;;5024816;28;20447;-83
2023/01/24 08:10:54;;;;;;;15.23;8.30;;;6.90;57.60;;;;;;5025380;28;20458;-85
2023/01/24 08:13:22;;;;;;;19.33;9.67;;;6.90;57.50;;;;;;5028915;28;20466;-85
2023/01/24 08:15:49;;;;;;;13.97;8.40;;;7.00;57.50;;;;;;5011979;28;20525;-85
2023/01/24 08:18:17;;;;;;;16.67;8.40;;;6.90;57.70;;;;;;5027817;28;20450;-86
2023/01/24 08:20:44;;;;;;;17.90;9.00;;;6.80;58.10;;;;;;5019936;28;20463;-83
2023/01/24 08:23:12;;;;;;;13.53;8.47;;;6.70;58.00;;;;;;5039078;28;20559;-87
2023/01/24 08:25:39;;;;;;;19.30;8.87;;;6.80;57.90;;;;;;5012965;28;21037;-85
2023/01/24 08:28:06;;;;;;;17.40;9.50;;;6.90;57.70;;;;;;5033082;28;20438;-85
2023/01/24 08:30:34;;;;;;;16.70;8.93;;;6.80;57.50;;;;;;5050464;28;20454;-84
2023/01/24 08:33:02;;;;;;;14.60;8.13;;;6.80;58.10;;;;;;5021207;28;20455;-82
2023/01/24 08:35:29;;;;;;;14.00;8.70;;;6.70;57.60;;;;;;5016522;28;20475;-84
2023/01/24 08:37:56;;;;;;;14.87;8.53;;;6.70;57.80;;;;;;5030686;28;20466;-84
2023/01/24 08:40:24;;;;;;;13.27;8.73;;;6.70;57.80;;;;;;5031433;28;20912;-83
2023/01/24 08:42:51;;;;;;;16.13;8.30;;;6.50;57.90;;;;;;5008711;28;21042;-82
2023/01/24 08:45:18;;;;;;;17.57;9.93;;;6.70;58.50;;;;;;5028748;28;20487;-83
2023/01/24 08:47:45;;;;;;;15.73;9.60;;;6.90;57.90;;;;;;5030098;28;20449;-85
2023/01/24 08:50:16;;;;;;;18.13;9.27;;;6.90;57.90;;;;;;5049836;28;20824;-83
2023/01/24 08:52:42;;;;;;;16.03;9.40;;;7.10;57.80;;;;;;5004693;28;20543;-83
2023/01/24 08:55:10;;;;;;;17.43;9.23;;;7.20;57.20;;;;;;5002137;28;20453;-82
2023/01/24 08:57:38;;;;;;;19.33;9.47;;;7.30;56.60;;;;;;5015766;28;20438;-85
2023/01/24 09:00:06;;;;;;;24.97;11.30;;;7.30;56.70;;;;;;5052495;28;20445;-83
2023/01/24 09:02:36;;;;;;;26.90;11.43;;;7.40;56.50;;;;;;5024293;28;20471;-84
2023/01/24 09:05:03;;;;;;;18.43;9.10;;;7.50;56.40;;;;;;5031256;28;20551;-84
2023/01/24 09:07:30;;;;;;;14.90;8.10;;;7.50;56.10;;;;;;5013424;28;21030;-81
2023/01/24 09:09:57;;;;;;;12.33;8.13;;;7.20;56.10;;;;;;5012492;28;20797;-85
2023/01/24 09:12:24;;;;;;;18.00;11.27;;;6.90;56.90;;;;;;5017850;28;20468;-82
2023/01/24 09:14:53;;;;;;;19.47;10.13;;;7.00;57.40;;;;;;5009033;28;20478;-83
2023/01/24 09:17:20;;;;;;;14.03;7.40;;;7.00;57.10;;;;;;5028146;28;20445;-83
2023/01/24 09:19:46;;;;;;;15.47;8.80;;;7.10;57.10;;;;;;5037644;28;20453;-83
2023/01/24 09:22:13;;;;;;;10.73;7.17;;;7.20;56.70;;;;;;5008653;28;20532;-83
2023/01/24 09:24:40;;;;;;;11.43;7.00;;;7.10;56.30;;;;;;5017991;28;20461;-83
2023/01/24 09:27:07;;;;;;;11.97;7.80;;;7.10;56.40;;;;;;5035479;28;21235;-83
2023/01/24 09:29:34;;;;;;;15.37;8.57;;;7.00;56.70;;;;;;5019070;28;20519;-84
2023/01/24 09:32:02;;;;;;;11.77;6.13;;;7.00;57.00;;;;;;5038184;28;20503;-84
2023/01/24 09:34:29;;;;;;;11.63;6.03;;;6.90;56.40;;;;;;5004850;28;20498;-82
2023/01/24 09:36:56;;;;;;;14.77;7.93;;;6.90;56.50;;;;;;4999850;28;20437;-84
2023/01/24 09:39:23;;;;;;;10.37;6.03;;;6.60;56.90;;;;;;5016983;28;20460;-83
2023/01/24 09:41:59;;;;;;;11.80;7.43;;;6.50;57.40;;;;;;5025370;28;20464;-80
2023/01/24 09:44:38;;;;;;;11.93;7.03;;;6.60;57.50;;;;;;5053153;28;20485;-83
2023/01/24 09:47:18;;;;;;;8.80;6.13;;;6.50;57.30;;;;;;5030535;28;20512;-84
2023/01/24 09:49:49;;;;;;;15.13;8.00;;;6.40;57.90;;;;;;5026514;28;20449;-84
2023/01/24 09:52:26;;;;;;;13.03;6.63;;;6.50;58.10;;;;;;5037023;28;20473;-83
2023/01/24 09:54:59;;;;;;;10.53;6.57;;;6.40;57.40;;;;;;5054778;28;20463;-84
2023/01/24 09:57:28;;;;;;;12.20;5.67;;;6.40;58.00;;;;;;5019610;28;20512;-81
2023/01/24 10:00:03;;;;;;;11.27;5.63;;;6.50;57.60;;;;;;5020924;28;20510;-81
2023/01/24 10:02:33;;;;;;;10.40;6.40;;;6.50;57.50;;;;;;5036815;28;20560;-83
2023/01/24 10:05:00;;;;;;;11.37;6.00;;;6.80;57.40;;;;;;5034920;28;21232;-83
2023/01/24 10:07:56;;;;;;;11.47;6.40;;;6.80;57.40;;;;;;5042584;28;21032;-85
2023/01/24 10:10:44;;;;;;;12.87;6.37;;;6.60;56.80;;;;;;5036661;28;20440;-82
2023/01/24 10:13:28;;;;;;;13.23;7.17;;;6.80;57.30;;;;;;5040392;28;20469;-82
2023/01/24 10:16:07;;;;;;;11.27;7.33;;;7.00;56.80;;;;;;5026668;28;20462;-81
2023/01/24 10:18:46;;;;;;;15.27;6.10;;;6.90;56.50;;;;;;5040014;28;20431;-81
2023/01/24 10:21:29;;;;;;;14.70;7.10;;;6.90;56.70;;;;;;5035971;28;20446;-83
2023/01/24 10:24:00;;;;;;;12.63;6.33;;;7.20;56.80;;;;;;5034751;28;20488;-81
2023/01/24 10:26:34;;;;;;;10.27;5.63;;;7.30;56.00;;;;;;5038696;28;20978;-84
2023/01/24 10:29:10;;;;;;;13.90;6.37;;;6.90;55.90;;;;;;5045669;28;21031;-83
2023/01/24 10:31:40;;;;;;;9.43;5.80;;;7.00;56.60;;;;;;5035156;28;20468;-84
2023/01/24 10:34:13;;;;;;;10.50;6.60;;;7.00;56.30;;;;;;5034668;28;20460;-82
2023/01/24 10:36:43;;;;;;;12.83;6.40;;;7.00;56.10;;;;;;5030072;28;20441;-83
2023/01/24 10:39:11;;;;;;;8.53;6.17;;;6.90;56.00;;;;;;5038318;28;20464;-83
2023/01/24 10:41:38;;;;;;;9.23;6.40;;;6.70;56.40;;;;;;5022494;28;20468;-83
2023/01/24 10:44:14;;;;;;;10.80;5.70;;;6.60;57.10;;;;;;5037979;28;20951;-83
2023/01/24 10:47:21;;;;;;;12.30;6.90;;;6.80;56.80;;;;;;5025014;28;20480;-83
2023/01/24 10:49:53;;;;;;;7.63;5.97;;;6.80;57.00;;;;;;5022285;28;20976;-79
2023/01/24 10:52:23;;;;;;;9.73;6.60;;;6.60;57.00;;;;;;5036963;28;20555;-81
2023/01/24 10:54:53;;;;;;;8.97;6.20;;;6.90;56.90;;;;;;5000980;28;20453;-83
2023/01/24 10:57:40;;;;;;;9.93;6.17;;;7.00;56.70;;;;;;5038412;28;20445;-83
2023/01/24 11:00:29;;;;;;;12.57;5.03;;;6.90;56.40;;;;;;5010337;28;20467;-82
2023/01/24 11:02:58;;;;;;;10.87;6.30;;;6.50;57.10;;;;;;5018473;28;20473;-85
2023/01/24 11:05:37;;;;;;;11.57;6.03;;;6.50;57.40;;;;;;5024030;28;20471;-83
2023/01/24 11:08:05;;;;;;;15.63;5.90;;;6.50;57.60;;;;;;5014679;28;20469;-84
2023/01/24 11:10:36;;;;;;;9.53;5.90;;;6.40;57.70;;;;;;5038228;28;20467;-86
2023/01/24 11:13:22;;;;;;;8.77;5.00;;;6.30;57.70;;;;;;5026215;28;20458;-85
2023/01/24 11:15:55;;;;;;;10.23;4.80;;;6.50;57.60;;;;;;5022215;28;20467;-83
2023/01/24 11:18:25;;;;;;;10.50;6.10;;;6.70;57.10;;;;;;5036279;28;20456;-87
2023/01/24 11:21:07;;;;;;;13.30;5.70;;;6.50;57.40;;;;;;5027301;28;20675;-87
2023/01/24 11:23:34;;;;;;;7.23;5.40;;;6.30;57.80;;;;;;5035609;28;20475;-85
2023/01/24 11:26:04;;;;;;;11.40;6.20;;;6.20;59.00;;;;;;5028711;28;20978;-83
2023/01/24 11:28:33;;;;;;;9.90;5.30;;;6.30;58.70;;;;;;5010274;28;20480;-83
2023/01/24 11:31:03;;;;;;;10.80;6.67;;;6.40;58.20;;;;;;5008974;28;20450;-85
2023/01/24 11:33:42;;;;;;;11.50;6.20;;;6.30;58.10;;;;;;5020501;28;20470;-84
2023/01/24 11:36:23;;;;;;;28.57;9.23;;;6.30;58.80;;;;;;5026079;28;20441;-85
2023/01/24 11:38:54;;;;;;;18.73;9.77;;;6.40;58.00;;;;;;5007526;28;20548;-85
2023/01/24 11:41:31;;;;;;;10.77;6.40;;;6.50;57.70;;;;;;5021053;28;20452;-85
2023/01/24 11:44:17;;;;;;;13.07;8.10;;;6.40;58.30;;;;;;5017026;28;20449;-83
2023/01/24 11:46:53;;;;;;;19.27;8.57;;;6.60;58.20;;;;;;5008378;28;20469;-83
2023/01/24 11:49:33;;;;;;;10.83;6.63;;;6.60;57.60;;;;;;5058651;28;20843;-82
2023/01/24 11:52:13;;;;;;;53.30;19.93;;;6.50;57.50;;;;;;5002462;28;21013;-84
2023/01/24 11:54:51;;;;;;;33.73;12.60;;;6.40;58.00;;;;;;5021517;28;20498;-82
2023/01/24 11:57:30;;;;;;;12.13;6.60;;;6.60;57.90;;;;;;5031873;28;21158;-82
2023/01/24 12:00:22;;;;;;;12.17;6.40;;;6.80;57.40;;;;;;5032552;28;20938;-82
2023/01/24 12:03:09;;;;;;;12.33;6.90;;;6.80;56.50;;;;;;5033694;28;20460;-83
2023/01/24 12:05:52;;;;;;;8.73;4.93;;;6.80;57.30;;;;;;5020615;28;20462;-83
2023/01/24 12:08:35;;;;;;;17.37;12.50;;;6.80;56.80;;;;;;5034141;28;21258;-82
2023/01/24 12:11:07;;;;;;;10.80;6.43;;;6.90;57.80;;;;;;5041361;28;20448;-82
2023/01/24 12:13:42;;;;;;;11.63;5.90;;;7.10;56.60;;;;;;5051729;28;20472;-83
2023/01/24 12:16:20;;;;;;;8.20;4.47;;;7.00;56.40;;;;;;5020556;28;20440;-82
2023/01/24 12:19:07;;;;;;;10.60;5.90;;;6.90;56.60;;;;;;5020289;28;20454;-82
2023/01/24 12:21:34;;;;;;;8.87;5.37;;;6.80;56.70;;;;;;5035365;28;20524;-83
2023/01/24 12:24:09;;;;;;;9.37;6.00;;;6.80;56.50;;;;;;5006110;28;20989;-80
2023/01/24 12:26:40;;;;;;;8.93;6.00;;;6.60;57.30;;;;;;5015006;28;20441;-83
2023/01/24 12:29:15;;;;;;;11.17;5.40;;;6.50;57.50;;;;;;5017168;28;20459;-84
2023/01/24 12:31:48;;;;;;;8.10;5.37;;;6.60;57.70;;;;;;5016236;28;20456;-82
2023/01/24 12:34:33;;;;;;;8.00;4.90;;;6.50;58.10;;;;;;5025154;28;20461;-84
2023/01/24 12:37:06;;;;;;;7.37;5.10;;;6.50;57.80;;;;;;5048089;28;20438;-84
2023/01/24 12:39:42;;;;;;;13.00;6.50;;;6.50;57.30;;;;;;5025631;28;20472;-84
2023/01/24 12:42:15;;;;;;;14.80;8.40;;;6.50;57.70;;;;;;5034344;28;21045;-84
2023/01/24 12:44:49;;;;;;;11.27;6.37;;;6.50;57.50;;;;;;5021422;28;20445;-85
2023/01/24 12:47:29;;;;;;;15.60;7.47;;;6.60;57.70;;;;;;5032661;28;20469;-83
2023/01/24 12:50:12;;;;;;;61.77;28.13;;;6.60;57.40;;;;;;5025430;28;20453;-84
2023/01/24 12:52:45;;;;;;;53.40;20.10;;;6.80;57.40;;;;;;5020547;28;20467;-84
2023/01/24 12:55:17;;;;;;;14.97;10.03;;;6.80;56.90;;;;;;5023332;28;20657;-83
2023/01/24 12:57:46;;;;;;;23.23;12.70;;;6.90;57.20;;;;;;5029146;28;20452;-85
2023/01/24 13:00:18;;;;;;;21.90;15.20;;;7.00;56.90;;;;;;5023842;28;20981;-84
2023/01/24 13:03:06;;;;;;;9.60;5.40;;;7.00;56.60;;;;;;5026925;28;20472;-84
2023/01/24 13:05:45;;;;;;;6.63;5.27;;;7.00;56.50;;;;;;5011241;28;20972;-83
2023/01/24 13:08:29;;;;;;;9.20;5.37;;;6.80;56.90;;;;;;5035617;28;20988;-83
2023/01/24 13:11:11;;;;;;;12.57;7.83;;;7.10;56.80;;;;;;5031015;28;20471;-83
2023/01/24 13:13:43;;;;;;;8.90;6.80;;;7.10;56.30;;;;;;5019215;28;21187;-82
2023/01/24 13:16:37;;;;;;;9.40;5.87;;;7.30;56.60;;;;;;5017854;28;20538;-84
2023/01/24 13:19:11;;;;;;;10.20;5.30;;;7.60;55.50;;;;;;5014496;28;20459;-83
2023/01/24 13:21:50;;;;;;;6.10;5.50;;;7.50;55.20;;;;;;5022001;28;20472;-84
2023/01/24 13:24:51;;;;;;;8.37;5.47;;;7.60;55.80;;;;;;5025484;28;20471;-83
2023/01/24 13:27:36;;;;;;;8.37;6.00;;;7.80;54.90;;;;;;5041305;28;20470;-84
2023/01/24 13:30:20;;;;;;;7.63;5.27;;;7.60;54.70;;;;;;5035594;28;20445;-83
2023/01/24 13:32:48;;;;;;;7.30;5.50;;;7.40;55.10;;;;;;5022322;28;20829;-81
2023/01/24 13:35:18;;;;;;;7.53;5.10;;;7.50;55.60;;;;;;5025087;28;21067;-83
2023/01/24 13:37:51;;;;;;;8.20;4.50;;;7.50;55.10;;;;;;5036795;28;20485;-84
2023/01/24 13:40:30;;;;;;;9.00;5.50;;;7.50;55.20;;;;;;5036776;28;21237;-85
2023/01/24 13:43:00;;;;;;;9.60;5.70;;;7.40;55.40;;;;;;5021772;28;20542;-85
2023/01/24 13:45:52;;;;;;;9.90;6.17;;;7.40;55.60;;;;;;5030339;28;20456;-86
2023/01/24 13:48:45;;;;;;;11.80;6.90;;;7.30;55.80;;;;;;5023722;28;20483;-85